Platinum, AK (99651)

04:06 AKDT le 27 septembre 2016 (GMT -0800)
Cape Newenham | | Change Station

Alt. 538 ft 58.65 °N, 162.06 °W | Updated 11 minutes ago

Drizzle
Bruine
48 ° F
Paraît 48 ° F
N
0
Vent Variable Vent de Nord

Aujourd'hui
Haut(e) -- | Bas -- ° F
--% Risque de précip.
Hier
Haut(e) -- | Bas -- ° F
Precip. -- pouce
Pression 30.16 pouce
Visibilité 10.0 Miles terrestres
Nuages Nuageux 1600 ft
Nuageux 4300 ft
Point de rosée 45 ° F
Humidité 88%
Précipitations 0.01 pouce
Profondeur de la couche neigeuse Non disponible.
8:43 AM 8:28 PM
Lune descendante, 12% visible
METAR PAEH 271155Z AUTO 00000KT 10SM DZ BKN016 BKN043 09/07 A3015 RMK AO2 RAB1152E1154DZB1154 SLP211 P0000 60001 70028 T00910072 10094 20081 52017
Pression 30.16 pouce
Visibilité 10.0 Miles terrestres
Nuages Nuageux 1600 ft
Nuageux 4300 ft
Point de rosée 45 ° F
Humidité 88%
Précipitations 0.01 pouce
Profondeur de la couche neigeuse Non disponible.
8:43 AM 8:28 PM
Lune descendante, 12% visible
METAR PAEH 271155Z AUTO 00000KT 10SM DZ BKN016 BKN043 09/07 A3015 RMK AO2 RAB1152E1154DZB1154 SLP211 P0000 60001 70028 T00910072 10094 20081 52017

10-Day Weather Forecast

Almanac

Astronomie

Sep. 27, 2016 Lever Coucher
Temps réel
Crépuscule civil
Crépuscule nautique
Crépuscule astronomique
Lune
Durée de lumière visible
Longueur du jour
Tomorrow will be .
, % of the Moon is Illuminated

Extrêmes aujourd'hui

State Highs State Lows

Community

WunderPhotos

Upload Photos

1,942,068 Photos téléchargées !

WunderBlog® & News

Nearby

Qualité de l'air

  Qualité de l'air Indice de la qualité de l'air Polluant
Not available.

Épaisseur de neige

Station Depth Altitude

Activité sismique

Ville Distance Mag. Time & Date
Minimum magnitude displayed is 2.5.

Températures des eaux côtières

Lieu Température

Stations

Stations météo à proximité

Emplacement de la station Température Refroidissement éolien Point de rosée Humidité Vent Precip. Alt. Mise à jour Type
                   

Watches & Warnings

There are currently no watches in effect.